Nearby METAR Reports

 

KEQY - Monroe, North Carolina, USA
Distance from station: S 11mi, 18km
Updated: Thu, 04/24/2014 11:53am EDT
Clear
Clear
 Wind from varies
Wind: varies 5 mph , 7 km/h
Temperature: 64°F , 18°C
Dew Point: 36°F , 2°C
Humidity: 34%
Barometer: 30.13 inHg , 1020.3 hPa
Clouds: Clear
Visibility: 10 miles , 16 km
2014/04/24 15:53 KEQY 241553Z AUTO VRB04KT 10SM CLR 18/02 A3013 RMK AO2 SLP209 T01780017
KJQF - Concord Reg Arpt, North Carolina, USA
Distance from station: NNW 16mi, 25km
Updated: Thu, 04/24/2014 11:55am EDT
Clear
Clear
 Wind from calm
Wind: Calm
Temperature: 64°F , 18°C
Dew Point: 34°F , 1°C
Humidity: 32%
Barometer: 30.17 inHg , 1021.7 hPa
Clouds: Clear
Visibility: 10 miles , 16 km
2014/04/24 15:55 KJQF 241555Z 00000KT 10SM CLR 18/01 A3017
 
KCLT - Charlotte, North Carolina, USA
Distance from station: W 20mi, 33km
Updated: Thu, 04/24/2014 11:52am EDT
Clear
Clear
 Wind from varies
Wind: varies 7 mph , 11 km/h
Temperature: 64°F , 18°C
Dew Point: 36°F , 2°C
Humidity: 34%
Barometer: 30.14 inHg , 1020.7 hPa
Clouds: Clear
Visibility: 10 miles , 16 km
2014/04/24 15:52 KCLT 241552Z VRB06KT 10SM CLR 18/02 A3014 RMK AO2 SLP201 T01780017
KUZA - Rock Hill, South Carolina, USA
Distance from station: WSW 29mi, 47km
Updated: Thu, 04/24/2014 11:54am EDT
Clear
Clear
 Wind from varies
Wind: varies 6 mph , 9 km/h
Temperature: 64°F , 18°C
Dew Point: 36°F , 2°C
Humidity: 34%
Barometer: 30.13 inHg , 1020.3 hPa
Clouds: Clear
Visibility: 10 miles , 16 km
2014/04/24 15:54 KUZA 241554Z AUTO VRB05KT 10SM CLR 18/02 A3013 RMK AO2 SLP197 T01780017
 
KVUJ - Albemarle Stanly, North Carolina, USA
Distance from station: NE 30mi, 48km
Updated: Thu, 04/24/2014 12:15pm EDT
Clear
Clear
 Wind from NNW
Wind: NNW 5 mph , 7 km/h
Temperature: 63°F , 17°C
Dew Point: 34°F , 1°C
Humidity: 34%
Barometer: 30.17 inHg , 1021.7 hPa
Clouds: Clear
Visibility: 10 miles , 16 km
2014/04/24 16:15 KVUJ 241615Z AUTO 34004KT 10SM CLR 17/01 A3017 RMK AO2 T01700009
KAFP - Wadesboro/Anson, North Carolina, USA
Distance from station: ESE 31mi, 50km
Updated: Thu, 04/24/2014 12:15pm EDT
Clear
Clear
 Wind from ENE
Wind: ENE 5 mph , 7 km/h
Temperature: 66°F , 19°C
Dew Point: 32°F , 0°C
Humidity: 28%
Barometer: 30.13 inHg , 1020.3 hPa
Clouds: Clear
Visibility: 10 miles , 16 km
2014/04/24 16:15 KAFP 241615Z AUTO 07004KT 10SM CLR 19/00 A3013 RMK AO2 T01910004
 
KAKH - Gastonia, North Carolina, USA
Distance from station: W 31mi, 51km
Updated: Thu, 04/24/2014 11:54am EDT
Clear
Clear
 Wind from SE
Wind: SE 6 mph , 9 km/h
Temperature: 64°F , 18°C
Dew Point: 36°F , 2°C
Humidity: 34%
Barometer: 30.13 inHg , 1020.3 hPa
Clouds: Clear
Visibility: 10 miles , 16 km
2014/04/24 15:54 KAKH 241554Z AUTO 14005KT 10SM CLR 18/02 A3013 RMK AO2 SLP199 T01780017
KRUQ - Salisbury Rowan, North Carolina, USA
Distance from station: N 33mi, 53km
Updated: Thu, 04/24/2014 12:15pm EDT
Clear
Clear
 Wind from SE
Wind: SE 5 mph , 7 km/h
Temperature: 63°F , 17°C
Dew Point: 34°F , 1°C
Humidity: 34%
Barometer: 30.12 inHg , 1020 hPa
Clouds: Clear
Visibility: 10 miles , 16 km
2014/04/24 16:15 KRUQ 241615Z AUTO 14004KT 10SM CLR 17/01 A3012 RMK AO2 T01720014
 
KLKR - Lancaster, South Carolina, USA
Distance from station: SSW 35mi, 57km
Updated: Thu, 04/24/2014 12:35pm EDT
Clear
Clear
 Wind from ESE
Wind: ESE 5 mph , 7 km/h
Temperature: 68°F , 20°C
Dew Point: 36°F , 2°C
Humidity: 30%
Barometer: 30.11 inHg , 1019.6 hPa
Clouds: Clear
Visibility: 10 miles , 16 km
2014/04/24 16:35 KLKR 241635Z AUTO 12004KT 10SM CLR 20/02 A3011 RMK AO2
KIPJ - Lincolnton, North Carolina, USA
Distance from station: WNW 39mi, 62km
Updated: Thu, 04/24/2014 12:15pm EDT
Clear
Clear
 Wind from calm
Wind: Calm
Temperature: 64°F , 18°C
Dew Point: 30°F , -1°C
Humidity: 28%
Barometer: 30.13 inHg , 1020.3 hPa
Clouds: Clear
Visibility: 10 miles , 16 km
2014/04/24 16:15 KIPJ 241615Z AUTO 00000KT 10SM CLR 18/M01 A3013 RMK AO2 T01761011
 
KDCM - Chester Catawba, South Carolina, USA
Distance from station: SW 44mi, 71km
Updated: Thu, 04/24/2014 12:15pm EDT
Clear
Clear
 Wind from E
Wind: E 7 mph , 11 km/h
Temperature: 70°F , 21°C
Dew Point: 39°F , 4°C
Humidity: 33%
Barometer: 30.12 inHg , 1020 hPa
Clouds: Clear
Visibility: 7 miles , 11 km
2014/04/24 16:15 KDCM 241615Z AUTO 08006KT 7SM CLR 21/04 A3012 RMK AO2
KSVH - Statesville, North Carolina, USA
Distance from station: NNW 44mi, 71km
Updated: Thu, 04/24/2014 12:15pm EDT
Clear
Clear
 Wind from ENE
Wind: ENE 5 mph , 7 km/h
Temperature: 61°F , 16°C
Dew Point: 36°F , 2°C
Humidity: 39%
Barometer: 30.11 inHg , 1019.6 hPa
Clouds: Clear
Visibility: 10 miles , 16 km
2014/04/24 16:15 KSVH 241615Z AUTO 07004KT 10SM CLR 16/02 A3011 RMK AO2 T01640021
 
KEXX - Davidson Cty Ap, North Carolina, USA
Distance from station: NNE 45mi, 72km
Updated: Thu, 04/24/2014 12:15pm EDT
Clear
Clear
 Wind from SSW
Wind: SSW 3 mph , 6 km/h
Temperature: 61°F , 16°C
Dew Point: 34°F , 1°C
Humidity: 36%
Barometer: 30.12 inHg , 1020 hPa
Clouds: Clear
Visibility: 10 miles , 16 km
2014/04/24 16:15 KEXX 241615Z AUTO 20003KT 10SM CLR 16/01 A3012 RMK AO2 T01630009
KCQW - Cheraw, South Carolina, USA
Distance from station: SE 49mi, 78km
Updated: Thu, 04/24/2014 12:35pm EDT
Clear
Clear
 
Temperature: 66°F , 19°C
Dew Point: 34°F , 1°C
Humidity: 30%
Barometer: 30.12 inHg , 1020 hPa
Clouds: Clear
2014/04/24 16:35 KCQW 241635Z AUTO CLR 19/01 A3012 RMK AO2